createdAt,value
2023-01-30T00:00:11.563Z,510.00
2023-01-30T00:01:11.551Z,503.00
2023-01-30T00:02:11.609Z,511.00
2023-01-30T00:03:11.566Z,512.00
2023-01-30T00:04:11.575Z,512.00
2023-01-30T00:05:11.641Z,511.00
2023-01-30T00:06:11.586Z,506.00
2023-01-30T00:07:11.589Z,504.00
2023-01-30T00:08:11.620Z,511.00
2023-01-30T00:09:11.608Z,500.00
2023-01-30T00:10:11.607Z,513.00
2023-01-30T00:11:11.602Z,505.00
2023-01-30T00:13:11.617Z,514.00
2023-01-30T00:14:11.618Z,505.00
2023-01-30T00:15:11.632Z,512.00
2023-01-30T00:16:11.674Z,504.00
2023-01-30T00:17:11.687Z,505.00
2023-01-30T00:18:11.640Z,504.00
2023-01-30T00:19:11.648Z,503.00
2023-01-30T00:20:11.781Z,505.00
2023-01-30T00:21:11.650Z,509.00
2023-01-30T00:22:11.660Z,507.00
2023-01-30T00:23:11.659Z,509.00
2023-01-30T00:24:11.733Z,507.00
2023-01-30T00:25:11.791Z,505.00
2023-01-30T00:26:11.771Z,509.00
2023-01-30T00:27:11.685Z,504.00
2023-01-30T00:49:11.765Z,507.00
2023-01-30T00:50:11.769Z,504.00
2023-01-30T00:51:11.777Z,507.00
2023-01-30T00:52:11.789Z,509.00
2023-01-30T00:53:11.800Z,503.00
2023-01-30T00:54:11.825Z,506.00
2023-01-30T00:56:11.804Z,507.00
2023-01-30T00:57:11.810Z,507.00
2023-01-30T00:58:11.825Z,509.00
2023-01-30T01:00:11.937Z,506.00
2023-01-30T01:01:11.852Z,512.00
2023-01-30T01:02:11.894Z,507.00
2023-01-30T01:03:11.913Z,502.00
2023-01-30T01:04:11.870Z,508.00
2023-01-30T01:05:11.874Z,503.00
2023-01-30T01:06:11.909Z,507.00
2023-01-30T01:07:11.893Z,503.00
2023-01-30T01:08:11.929Z,508.00
2023-01-30T01:09:11.922Z,508.00
2023-01-30T01:10:11.929Z,512.00
2023-01-30T01:11:11.932Z,505.00
2023-01-30T01:12:11.970Z,505.00
2023-01-30T01:13:11.963Z,509.00
2023-01-30T01:14:11.973Z,508.00
2023-01-30T01:15:12.267Z,505.00
2023-01-30T01:16:11.999Z,507.00
2023-01-30T01:17:12.001Z,507.00
2023-01-30T01:18:12.000Z,507.00
2023-01-30T01:19:12.359Z,509.00
2023-01-30T01:20:12.028Z,507.00
2023-01-30T01:21:12.030Z,505.00
2023-01-30T01:22:12.039Z,504.00
2023-01-30T01:23:12.052Z,510.00
2023-01-30T01:24:12.063Z,509.00
2023-01-30T01:25:12.086Z,505.00
2023-01-30T01:26:12.149Z,504.00
2023-01-30T01:27:12.083Z,509.00
2023-01-30T01:28:12.100Z,511.00
2023-01-30T01:29:12.114Z,505.00
2023-01-30T01:30:12.116Z,511.00
2023-01-30T01:31:12.243Z,507.00
2023-01-30T01:32:12.160Z,509.00
2023-01-30T01:33:12.135Z,510.00
2023-01-30T01:34:12.114Z,510.00
2023-01-30T01:35:12.149Z,508.00
2023-01-30T01:36:13.598Z,507.00
2023-01-30T01:37:13.117Z,507.00
2023-01-30T01:38:12.098Z,508.00
2023-01-30T01:39:12.087Z,507.00
2023-01-30T01:40:12.073Z,506.00
2023-01-30T01:41:12.063Z,507.00
2023-01-30T01:42:12.043Z,509.00
2023-01-30T01:43:12.037Z,508.00
2023-01-30T01:44:12.748Z,506.00
2023-01-30T01:45:12.026Z,502.00
2023-01-30T01:46:12.042Z,510.00
2023-01-30T01:47:11.966Z,508.00
2023-01-30T01:48:11.940Z,508.00
2023-01-30T01:49:11.932Z,511.00
2023-01-30T01:50:11.921Z,503.00
2023-01-30T01:51:11.903Z,505.00
2023-01-30T01:52:11.887Z,504.00
2023-01-30T01:53:11.864Z,507.00
2023-01-30T01:54:11.853Z,505.00
2023-01-30T01:55:11.824Z,507.00
2023-01-30T01:56:11.821Z,508.00
2023-01-30T01:57:11.800Z,507.00
2023-01-30T01:58:11.794Z,507.00
2023-01-30T01:59:11.775Z,509.00
2023-01-30T02:00:11.755Z,504.00
2023-01-30T02:01:11.863Z,504.00
2023-01-30T02:02:12.299Z,505.00
2023-01-30T02:03:11.719Z,506.00
2023-01-30T02:04:11.702Z,511.00
2023-01-30T02:05:11.711Z,507.00
2023-01-30T02:06:11.719Z,505.00
2023-01-30T02:07:11.718Z,509.00
2023-01-30T02:08:11.729Z,505.00
2023-01-30T02:09:11.738Z,507.00
2023-01-30T02:10:11.739Z,507.00
2023-01-30T02:11:11.759Z,510.00
2023-01-30T02:12:11.755Z,506.00
2023-01-30T02:13:11.779Z,505.00
2023-01-30T02:14:11.764Z,508.00
2023-01-30T02:15:11.775Z,505.00
2023-01-30T02:16:11.795Z,509.00
2023-01-30T02:17:11.821Z,503.00
2023-01-30T02:18:11.825Z,501.00
2023-01-30T02:19:11.829Z,508.00
2023-01-30T02:20:11.836Z,504.00
2023-01-30T02:21:12.731Z,506.00
2023-01-30T02:22:12.729Z,504.00
2023-01-30T02:23:11.884Z,508.00
2023-01-30T02:24:11.900Z,501.00
2023-01-30T02:25:11.901Z,504.00
2023-01-30T02:26:11.935Z,506.00
2023-01-30T02:27:11.925Z,507.00
2023-01-30T02:28:11.939Z,507.00
2023-01-30T02:29:11.946Z,509.00
2023-01-30T02:30:11.958Z,508.00
2023-01-30T02:31:12.089Z,510.00
2023-01-30T02:32:11.971Z,511.00
2023-01-30T02:33:11.974Z,510.00
2023-01-30T02:34:11.995Z,506.00
2023-01-30T02:35:11.988Z,511.00
2023-01-30T02:36:11.995Z,508.00
2023-01-30T02:37:12.006Z,511.00
2023-01-30T02:38:12.010Z,508.00
2023-01-30T02:39:12.021Z,509.00
2023-01-30T02:40:12.013Z,510.00
2023-01-30T02:41:12.044Z,508.00
2023-01-30T02:42:12.036Z,507.00
2023-01-30T03:01:12.209Z,510.00
2023-01-30T03:02:12.212Z,506.00
2023-01-30T03:03:12.207Z,512.00
2023-01-30T03:04:12.204Z,508.00
2023-01-30T03:05:12.230Z,511.00
2023-01-30T03:06:12.731Z,500.00
2023-01-30T03:07:12.235Z,508.00
2023-01-30T03:08:13.234Z,503.00
2023-01-30T03:09:12.263Z,509.00
2023-01-30T03:10:12.269Z,510.00
2023-01-30T03:11:12.277Z,505.00
2023-01-30T03:12:12.294Z,513.00
2023-01-30T03:13:12.304Z,511.00
2023-01-30T03:14:12.303Z,506.00
2023-01-30T03:15:12.318Z,508.00
2023-01-30T03:16:12.383Z,505.00
2023-01-30T03:17:12.408Z,504.00
2023-01-30T03:18:12.348Z,503.00
2023-01-30T03:19:12.386Z,503.00
2023-01-30T03:20:12.362Z,502.00
2023-01-30T03:21:12.361Z,509.00
2023-01-30T03:22:12.389Z,507.00
2023-01-30T03:23:12.406Z,507.00
2023-01-30T03:24:12.413Z,507.00
2023-01-30T03:25:12.528Z,511.00
2023-01-30T03:26:12.455Z,507.00
2023-01-30T03:27:12.458Z,505.00
2023-01-30T03:28:12.465Z,505.00
2023-01-30T03:29:12.478Z,501.00
2023-01-30T03:30:13.248Z,506.00
2023-01-30T03:31:12.553Z,506.00
2023-01-30T03:32:12.531Z,509.00
2023-01-30T03:40:12.629Z,509.00
2023-01-30T03:41:12.632Z,513.00
2023-01-30T03:42:12.635Z,503.00
2023-01-30T03:43:12.638Z,506.00
2023-01-30T03:44:12.644Z,502.00
2023-01-30T03:45:12.650Z,503.00
2023-01-30T03:46:12.692Z,506.00
2023-01-30T03:47:12.663Z,506.00
2023-01-30T03:48:12.695Z,506.00
2023-01-30T03:49:12.836Z,508.00
2023-01-30T03:50:12.684Z,504.00
2023-01-30T03:51:12.675Z,510.00
2023-01-30T03:52:12.689Z,509.00
2023-01-30T03:53:12.716Z,503.00
2023-01-30T03:54:12.713Z,503.00
2023-01-30T03:55:12.698Z,506.00
2023-01-30T03:56:12.711Z,503.00
2023-01-30T03:57:12.705Z,511.00
2023-01-30T03:58:12.689Z,503.00
2023-01-30T03:59:12.693Z,510.00
2023-01-30T04:00:12.676Z,507.00
2023-01-30T04:01:12.728Z,510.00
2023-01-30T04:02:12.682Z,507.00
2023-01-30T04:03:12.674Z,506.00
2023-01-30T04:04:12.667Z,504.00
2023-01-30T04:05:12.660Z,506.00
2023-01-30T04:06:12.650Z,504.00
2023-01-30T04:07:12.638Z,501.00
2023-01-30T04:08:12.643Z,506.00
2023-01-30T04:09:12.647Z,503.00
2023-01-30T04:10:12.640Z,507.00
2023-01-30T04:11:12.638Z,508.00
2023-01-30T04:12:12.636Z,506.00
2023-01-30T04:13:12.643Z,507.00
2023-01-30T04:14:12.626Z,508.00
2023-01-30T04:15:12.689Z,510.00
2023-01-30T04:16:12.610Z,509.00
2023-01-30T04:17:12.610Z,506.00
2023-01-30T04:18:12.607Z,502.00
2023-01-30T04:19:12.617Z,504.00
2023-01-30T04:20:12.600Z,507.00
2023-01-30T04:21:12.588Z,505.00
2023-01-30T04:22:12.591Z,506.00
2023-01-30T04:23:12.588Z,503.00
2023-01-30T04:24:12.579Z,507.00
2023-01-30T04:25:12.596Z,502.00
2023-01-30T04:26:12.604Z,507.00
2023-01-30T04:27:13.215Z,507.00
2023-01-30T04:28:12.558Z,504.00
2023-01-30T04:29:12.559Z,503.00
2023-01-30T04:30:12.564Z,505.00
2023-01-30T04:31:12.561Z,505.00
2023-01-30T04:32:12.554Z,500.00
2023-01-30T04:33:12.549Z,503.00
2023-01-30T04:34:12.548Z,502.00
2023-01-30T04:35:12.522Z,507.00
2023-01-30T04:36:12.523Z,505.00
2023-01-30T04:37:12.511Z,507.00
2023-01-30T04:38:12.515Z,504.00
2023-01-30T04:39:12.537Z,508.00
2023-01-30T04:40:12.527Z,502.00
2023-01-30T04:41:12.520Z,506.00
2023-01-30T04:42:12.587Z,507.00
2023-01-30T04:43:12.509Z,503.00
2023-01-30T04:44:12.512Z,503.00
2023-01-30T04:45:12.499Z,506.00
2023-01-30T04:46:12.504Z,511.00
2023-01-30T04:47:12.555Z,506.00
2023-01-30T04:48:12.507Z,506.00
2023-01-30T04:49:12.499Z,514.00
2023-01-30T04:50:12.498Z,505.00
2023-01-30T04:51:12.499Z,503.00
2023-01-30T04:52:12.501Z,503.00
2023-01-30T04:53:12.527Z,506.00
2023-01-30T05:44:12.768Z,505.00
2023-01-30T05:46:12.815Z,506.00
2023-01-30T05:47:12.762Z,509.00
2023-01-30T05:48:12.767Z,504.00
2023-01-30T05:49:12.781Z,509.00
2023-01-30T05:50:13.713Z,509.00
2023-01-30T05:51:12.780Z,508.00
2023-01-30T05:52:12.789Z,503.00
2023-01-30T05:53:12.795Z,505.00
2023-01-30T05:54:12.816Z,503.00
2023-01-30T05:55:12.815Z,505.00
2023-01-30T05:56:12.826Z,508.00
2023-01-30T05:57:12.859Z,514.00
2023-01-30T05:58:12.845Z,512.00
2023-01-30T05:59:12.868Z,509.00
2023-01-30T06:00:12.857Z,509.00
2023-01-30T06:01:12.876Z,504.00
2023-01-30T06:02:12.865Z,508.00
2023-01-30T06:03:12.881Z,510.00
2023-01-30T06:04:12.899Z,509.00
2023-01-30T06:05:12.898Z,507.00
2023-01-30T06:06:12.895Z,509.00
2023-01-30T06:07:12.895Z,510.00
2023-01-30T06:08:12.962Z,506.00
2023-01-30T06:09:12.910Z,508.00
2023-01-30T06:10:12.917Z,508.00
2023-01-30T06:11:12.938Z,508.00
2023-01-30T06:12:12.942Z,504.00
2023-01-30T06:13:12.955Z,502.00
2023-01-30T06:14:12.957Z,501.00
2023-01-30T06:15:12.975Z,503.00
2023-01-30T06:16:13.137Z,511.00
2023-01-30T06:17:13.009Z,510.00
2023-01-30T06:18:13.102Z,507.00
2023-01-30T06:19:13.707Z,520.00
2023-01-30T06:20:13.006Z,519.00
2023-01-30T06:21:13.021Z,522.00
2023-01-30T06:22:13.028Z,526.00
2023-01-30T06:23:13.014Z,537.00
2023-01-30T06:24:13.009Z,563.00
2023-01-30T06:25:12.995Z,569.00
2023-01-30T06:26:13.055Z,575.00
2023-01-30T06:27:12.989Z,580.00
2023-01-30T06:28:12.990Z,571.00
2023-01-30T06:29:12.982Z,573.00
2023-01-30T06:30:12.974Z,585.00
2023-01-30T06:31:13.029Z,571.00
2023-01-30T06:32:12.967Z,576.00
2023-01-30T06:33:12.992Z,576.00
2023-01-30T06:34:13.016Z,579.00
2023-01-30T06:35:13.627Z,589.00
2023-01-30T06:36:13.953Z,590.00
2023-01-30T06:37:13.698Z,592.00
2023-01-30T06:38:12.914Z,596.00
2023-01-30T06:39:12.897Z,592.00
2023-01-30T06:40:12.899Z,597.00
2023-01-30T06:41:12.870Z,600.00
2023-01-30T06:42:12.853Z,603.00
2023-01-30T06:43:12.832Z,603.00
2023-01-30T06:44:12.812Z,607.00
2023-01-30T06:45:12.798Z,606.00
2023-01-30T06:46:12.839Z,600.00
2023-01-30T06:47:12.776Z,605.00
2023-01-30T06:48:12.760Z,599.00
2023-01-30T06:49:12.742Z,607.00
2023-01-30T06:50:14.709Z,607.00
2023-01-30T06:51:12.716Z,607.00
2023-01-30T06:52:12.713Z,609.00
2023-01-30T06:53:12.684Z,609.00
2023-01-30T06:54:12.678Z,615.00
2023-01-30T06:55:12.644Z,615.00
2023-01-30T06:56:12.673Z,619.00
2023-01-30T06:57:12.620Z,616.00
2023-01-30T06:58:12.590Z,621.00
2023-01-30T06:59:12.577Z,619.00
2023-01-30T07:00:12.572Z,622.00
2023-01-30T07:01:12.543Z,620.00
2023-01-30T07:02:12.571Z,620.00
2023-01-30T07:03:12.599Z,623.00
2023-01-30T07:04:12.557Z,625.00
2023-01-30T07:05:12.491Z,623.00
2023-01-30T07:06:12.477Z,626.00
2023-01-30T07:07:12.462Z,622.00
2023-01-30T07:08:12.451Z,623.00
2023-01-30T07:09:12.439Z,625.00
2023-01-30T07:10:12.410Z,626.00
2023-01-30T07:11:12.400Z,624.00
2023-01-30T07:12:12.389Z,628.00
2023-01-30T07:13:12.361Z,626.00
2023-01-30T07:14:12.343Z,627.00
2023-01-30T07:15:12.332Z,625.00
2023-01-30T07:16:12.324Z,628.00
2023-01-30T07:17:12.326Z,626.00
2023-01-30T07:18:12.310Z,633.00
2023-01-30T07:19:12.377Z,628.00
2023-01-30T07:20:12.319Z,632.00
2023-01-30T07:21:12.331Z,631.00
2023-01-30T07:22:12.325Z,628.00
2023-01-30T07:23:12.330Z,622.00
2023-01-30T07:24:12.351Z,623.00
2023-01-30T07:25:12.401Z,625.00
2023-01-30T07:26:12.411Z,631.00
2023-01-30T07:27:12.375Z,626.00
2023-01-30T07:28:12.363Z,628.00
2023-01-30T07:29:12.364Z,629.00
2023-01-30T07:30:12.364Z,594.00
2023-01-30T07:31:12.364Z,575.00
2023-01-30T07:32:12.356Z,580.00
2023-01-30T07:33:12.372Z,580.00
2023-01-30T07:34:12.356Z,585.00
2023-01-30T07:35:12.353Z,591.00
2023-01-30T07:36:12.366Z,597.00
2023-01-30T07:37:12.345Z,621.00
2023-01-30T07:38:12.346Z,619.00
2023-01-30T07:39:12.360Z,618.00
2023-01-30T07:40:12.335Z,619.00
2023-01-30T07:41:12.324Z,614.00
2023-01-30T07:42:12.328Z,618.00
2023-01-30T07:43:12.336Z,616.00
2023-01-30T07:44:12.322Z,618.00
2023-01-30T07:45:12.322Z,615.00
2023-01-30T07:46:12.331Z,616.00
2023-01-30T07:47:12.425Z,615.00
2023-01-30T07:48:12.302Z,614.00
2023-01-30T07:49:12.305Z,618.00
2023-01-30T07:50:12.301Z,624.00
2023-01-30T07:51:12.296Z,618.00
2023-01-30T07:52:12.292Z,624.00
2023-01-30T07:53:12.285Z,624.00
2023-01-30T07:54:12.303Z,623.00
2023-01-30T07:55:12.263Z,623.00
2023-01-30T07:56:12.265Z,626.00
2023-01-30T07:57:12.271Z,618.00
2023-01-30T07:58:12.269Z,626.00
2023-01-30T07:59:13.115Z,621.00
2023-01-30T08:00:12.335Z,618.00
2023-01-30T08:01:12.305Z,625.00
2023-01-30T08:02:12.268Z,625.00
2023-01-30T08:03:12.320Z,631.00
2023-01-30T08:04:12.384Z,622.00
2023-01-30T08:05:12.239Z,626.00
2023-01-30T08:06:12.233Z,627.00
2023-01-30T08:07:12.241Z,631.00
2023-01-30T08:08:12.241Z,631.00
2023-01-30T08:09:12.236Z,633.00
2023-01-30T08:10:12.301Z,628.00
2023-01-30T08:11:13.135Z,627.00
2023-01-30T08:12:12.212Z,627.00
2023-01-30T08:13:13.193Z,625.00
2023-01-30T08:14:12.189Z,625.00
2023-01-30T08:15:12.696Z,623.00
2023-01-30T08:16:12.266Z,624.00
2023-01-30T08:17:12.245Z,621.00
2023-01-30T08:18:12.198Z,624.00
2023-01-30T08:19:12.207Z,618.00
2023-01-30T08:20:13.199Z,622.00
2023-01-30T08:21:12.244Z,622.00
2023-01-30T08:22:12.280Z,607.00
2023-01-30T08:23:12.293Z,608.00
2023-01-30T08:24:12.309Z,602.00
2023-01-30T08:25:12.295Z,608.00
2023-01-30T08:26:12.332Z,602.00
2023-01-30T08:27:12.305Z,590.00
2023-01-30T08:28:12.297Z,595.00
2023-01-30T08:29:12.296Z,600.00
2023-01-30T08:30:12.293Z,602.00
2023-01-30T08:31:12.425Z,595.00
2023-01-30T08:32:14.712Z,598.00
2023-01-30T08:33:12.367Z,600.00
2023-01-30T08:34:12.368Z,600.00
2023-01-30T08:35:12.367Z,601.00
2023-01-30T08:36:12.358Z,602.00
2023-01-30T08:37:12.350Z,600.00
2023-01-30T08:38:12.690Z,603.00
2023-01-30T08:39:12.346Z,606.00
2023-01-30T08:40:12.339Z,602.00
2023-01-30T08:41:12.362Z,609.00
2023-01-30T08:42:12.339Z,606.00
2023-01-30T08:43:12.347Z,609.00
2023-01-30T08:44:12.342Z,606.00
2023-01-30T08:45:12.339Z,605.00
2023-01-30T08:46:12.366Z,608.00
2023-01-30T08:47:12.341Z,609.00
2023-01-30T08:48:13.188Z,605.00
2023-01-30T08:49:12.331Z,608.00
2023-01-30T08:50:12.342Z,613.00
2023-01-30T08:51:13.189Z,611.00
2023-01-30T08:52:12.335Z,609.00
2023-01-30T08:53:13.187Z,616.00
2023-01-30T08:54:12.338Z,611.00
2023-01-30T08:55:12.333Z,616.00
2023-01-30T08:56:12.342Z,611.00
2023-01-30T08:57:12.326Z,617.00
2023-01-30T08:58:12.328Z,615.00
2023-01-30T08:59:12.325Z,616.00
2023-01-30T09:00:12.326Z,617.00
2023-01-30T09:01:12.359Z,616.00
2023-01-30T09:02:12.368Z,614.00
2023-01-30T09:03:12.310Z,622.00
2023-01-30T09:04:12.311Z,617.00
2023-01-30T09:05:12.292Z,612.00
2023-01-30T09:06:12.361Z,616.00
2023-01-30T09:07:12.289Z,623.00
2023-01-30T09:08:12.363Z,620.00
2023-01-30T09:09:12.282Z,624.00
2023-01-30T09:10:12.276Z,619.00
2023-01-30T09:11:12.264Z,615.00
2023-01-30T09:12:12.271Z,624.00
2023-01-30T09:13:12.236Z,624.00
2023-01-30T09:14:12.305Z,615.00
2023-01-30T09:15:12.221Z,617.00
2023-01-30T09:16:13.140Z,647.00
2023-01-30T09:17:12.205Z,651.00
2023-01-30T09:18:12.199Z,664.00
2023-01-30T09:19:12.208Z,668.00
2023-01-30T09:20:12.257Z,735.00
2023-01-30T09:21:12.164Z,714.00
2023-01-30T09:22:12.155Z,746.00
2023-01-30T09:23:12.138Z,779.00
2023-01-30T09:24:12.123Z,807.00
2023-01-30T09:25:12.108Z,820.00
2023-01-30T09:26:12.249Z,848.00
2023-01-30T09:27:12.105Z,885.00
2023-01-30T09:28:12.064Z,890.00
2023-01-30T09:29:12.060Z,788.00
2023-01-30T09:30:12.043Z,855.00
2023-01-30T09:31:12.086Z,884.00
2023-01-30T09:32:12.012Z,873.00
2023-01-30T09:33:11.994Z,867.00
2023-01-30T09:34:11.955Z,862.00
2023-01-30T09:35:11.965Z,849.00
2023-01-30T09:36:12.688Z,832.00
2023-01-30T09:37:11.908Z,846.00
2023-01-30T09:38:11.892Z,841.00
2023-01-30T09:39:11.873Z,838.00
2023-01-30T09:40:12.672Z,828.00
2023-01-30T09:41:11.838Z,824.00
2023-01-30T09:42:11.825Z,808.00
2023-01-30T09:46:11.767Z,834.00
2023-01-30T09:47:11.723Z,841.00
2023-01-30T09:48:11.736Z,834.00
2023-01-30T09:49:11.680Z,813.00
2023-01-30T09:50:11.684Z,816.00
2023-01-30T09:51:11.680Z,804.00
2023-01-30T09:52:11.644Z,820.00
2023-01-30T09:53:11.626Z,814.00
2023-01-30T09:54:11.622Z,811.00
2023-01-30T09:55:11.597Z,811.00
2023-01-30T09:56:11.577Z,778.00
2023-01-30T09:57:22.198Z,804.00
2023-01-30T09:58:12.535Z,805.00
2023-01-30T09:59:11.500Z,804.00
2023-01-30T10:00:11.477Z,804.00
2023-01-30T10:01:11.449Z,809.00
2023-01-30T10:02:11.425Z,783.00
2023-01-30T10:03:11.421Z,786.00
2023-01-30T10:04:11.400Z,783.00
2023-01-30T10:05:11.410Z,771.00
2023-01-30T10:06:11.396Z,790.00
2023-01-30T10:07:11.305Z,780.00
2023-01-30T10:08:11.285Z,790.00
2023-01-30T10:09:11.267Z,793.00
2023-01-30T10:10:11.231Z,783.00
2023-01-30T10:11:11.201Z,785.00
2023-01-30T10:12:11.180Z,769.00
2023-01-30T10:13:11.154Z,772.00
2023-01-30T10:14:11.139Z,790.00
2023-01-30T10:15:11.114Z,779.00
2023-01-30T10:16:11.119Z,772.00
2023-01-30T10:17:11.068Z,739.00
2023-01-30T10:19:12.397Z,701.00
2023-01-30T12:25:11.075Z,867.00
2023-01-30T12:26:11.172Z,877.00
2023-01-30T12:27:11.145Z,886.00
2023-01-30T12:28:11.204Z,864.00
2023-01-30T12:31:11.327Z,865.00
2023-01-30T12:32:11.349Z,867.00
2023-01-30T12:33:11.370Z,858.00
2023-01-30T12:36:11.464Z,905.00
2023-01-30T12:37:11.496Z,875.00
2023-01-30T12:38:11.589Z,889.00
2023-01-30T12:39:11.585Z,899.00
2023-01-30T12:40:11.644Z,907.00
2023-01-30T12:41:11.661Z,928.00
2023-01-30T12:42:11.703Z,910.00
2023-01-30T12:43:11.774Z,899.00
2023-01-30T12:44:12.669Z,917.00
2023-01-30T12:45:11.832Z,932.00
2023-01-30T12:46:11.972Z,920.00
2023-01-30T12:47:11.959Z,931.00
2023-01-30T12:48:11.973Z,960.00
2023-01-30T12:49:12.313Z,951.00
2023-01-30T12:50:12.073Z,963.00
2023-01-30T12:51:12.109Z,955.00
2023-01-30T12:52:12.141Z,943.00
2023-01-30T12:53:12.185Z,959.00
2023-01-30T12:54:12.245Z,989.00
2023-01-30T12:55:12.441Z,979.00
2023-01-30T12:56:12.312Z,987.00
2023-01-30T12:57:12.339Z,962.00
2023-01-30T12:58:12.394Z,1022.00
2023-01-30T12:59:12.431Z,1020.00
2023-01-30T13:00:12.494Z,1012.00
2023-01-30T13:01:12.526Z,1021.00
2023-01-30T13:02:12.670Z,1030.00
2023-01-30T13:03:12.665Z,1016.00
2023-01-30T13:04:12.646Z,1013.00
2023-01-30T13:05:12.687Z,1020.00
2023-01-30T13:06:12.731Z,1042.00
2023-01-30T13:07:12.767Z,1069.00
2023-01-30T13:08:12.823Z,1163.00
2023-01-30T13:09:12.856Z,1092.00
2023-01-30T13:10:15.425Z,1067.00
2023-01-30T13:11:12.867Z,1059.00
2023-01-30T13:12:12.877Z,1031.00
2023-01-30T13:13:12.812Z,1034.00
2023-01-30T13:14:12.794Z,1016.00
2023-01-30T13:15:12.766Z,1014.00
2023-01-30T13:16:12.779Z,1011.00
2023-01-30T13:17:12.712Z,1027.00
2023-01-30T13:18:12.694Z,1027.00
2023-01-30T13:19:12.745Z,1038.00
2023-01-30T13:20:12.853Z,1054.00
2023-01-30T13:21:12.656Z,1037.00
2023-01-30T13:22:12.595Z,1032.00
2023-01-30T13:23:12.579Z,1037.00
2023-01-30T13:24:12.547Z,1041.00
2023-01-30T13:25:12.510Z,1040.00
2023-01-30T13:26:12.520Z,1033.00
2023-01-30T13:27:12.467Z,1012.00
2023-01-30T13:28:12.437Z,1031.00
2023-01-30T13:29:12.411Z,1024.00
2023-01-30T13:30:12.466Z,1019.00
2023-01-30T13:31:12.436Z,1034.00
2023-01-30T13:32:12.457Z,1018.00
2023-01-30T13:33:12.323Z,1013.00
2023-01-30T13:34:12.285Z,1001.00
2023-01-30T13:35:12.258Z,1029.00
2023-01-30T13:36:12.274Z,1019.00
2023-01-30T13:37:12.200Z,1023.00
2023-01-30T13:38:12.175Z,999.00
2023-01-30T13:39:12.150Z,993.00
2023-01-30T13:40:12.252Z,994.00
2023-01-30T13:41:12.096Z,1001.00
2023-01-30T13:42:12.094Z,998.00
2023-01-30T13:43:12.103Z,1029.00
2023-01-30T13:44:12.147Z,1022.00
2023-01-30T13:45:12.197Z,1036.00
2023-01-30T13:46:12.310Z,1021.00
2023-01-30T13:47:12.262Z,1032.00
2023-01-30T13:48:12.313Z,1019.00
2023-01-30T13:49:12.337Z,1020.00
2023-01-30T13:50:12.393Z,1014.00
2023-01-30T13:51:12.425Z,1010.00
2023-01-30T13:52:14.354Z,1035.00
2023-01-30T13:53:12.564Z,1024.00
2023-01-30T13:54:12.505Z,1020.00
2023-01-30T13:55:12.582Z,1037.00
2023-01-30T13:56:32.939Z,1025.00
2023-01-30T13:57:13.539Z,1025.00
2023-01-30T13:58:12.514Z,1026.00
2023-01-30T13:59:12.472Z,1017.00
2023-01-30T14:00:12.534Z,1013.00
2023-01-30T14:01:12.489Z,1019.00
2023-01-30T14:02:12.470Z,1023.00
2023-01-30T14:03:12.373Z,1002.00
2023-01-30T14:04:12.358Z,1022.00
2023-01-30T14:05:12.351Z,1027.00
2023-01-30T14:06:12.396Z,1021.00
2023-01-30T14:07:12.453Z,1022.00
2023-01-30T14:08:12.489Z,1023.00
2023-01-30T14:09:12.528Z,1029.00
2023-01-30T14:10:12.575Z,1015.00
2023-01-30T14:11:12.617Z,1018.00
2023-01-30T14:12:12.673Z,1029.00
2023-01-30T14:13:12.696Z,1028.00
2023-01-30T14:14:12.729Z,1003.00
2023-01-30T14:15:12.753Z,1021.00
2023-01-30T14:16:12.760Z,1018.00
2023-01-30T14:17:12.791Z,1020.00
2023-01-30T14:18:12.829Z,1015.00
2023-01-30T14:19:12.855Z,1029.00
2023-01-30T14:20:12.885Z,1012.00
2023-01-30T14:21:12.913Z,1019.00
2023-01-30T14:22:12.927Z,1008.00
2023-01-30T14:23:12.913Z,986.00
2023-01-30T14:24:12.939Z,1017.00
2023-01-30T14:25:12.916Z,994.00
2023-01-30T14:26:12.931Z,991.00
2023-01-30T14:27:12.888Z,1001.00
2023-01-30T14:28:12.861Z,996.00
2023-01-30T14:29:12.871Z,995.00
2023-01-30T14:30:12.847Z,999.00
2023-01-30T14:31:12.988Z,1000.00
2023-01-30T14:32:13.148Z,996.00
2023-01-30T14:33:12.871Z,990.00
2023-01-30T14:34:12.880Z,997.00
2023-01-30T14:36:12.794Z,998.00
2023-01-30T14:46:12.811Z,989.00
2023-01-30T14:50:12.732Z,977.00
2023-01-30T14:51:12.740Z,970.00
2023-01-30T14:52:12.734Z,978.00
2023-01-30T14:53:12.726Z,985.00
2023-01-30T14:54:13.193Z,974.00
2023-01-30T14:55:12.743Z,978.00
2023-01-30T14:56:13.558Z,961.00
2023-01-30T14:57:12.735Z,998.00
2023-01-30T14:58:12.735Z,976.00
2023-01-30T14:59:13.141Z,968.00
2023-01-30T15:00:17.676Z,977.00
2023-01-30T15:02:12.723Z,978.00
2023-01-30T15:03:12.635Z,986.00
2023-01-30T15:04:12.609Z,979.00
2023-01-30T15:05:12.589Z,996.00
2023-01-30T15:06:12.613Z,980.00
2023-01-30T15:07:12.542Z,990.00
2023-01-30T15:08:12.510Z,979.00
2023-01-30T15:09:12.486Z,972.00
2023-01-30T15:10:12.454Z,991.00
2023-01-30T15:11:12.445Z,978.00
2023-01-30T15:12:12.420Z,985.00
2023-01-30T15:13:12.385Z,985.00
2023-01-30T15:14:12.361Z,970.00
2023-01-30T15:15:12.351Z,987.00
2023-01-30T15:16:13.336Z,987.00
2023-01-30T15:17:12.301Z,988.00
2023-01-30T15:18:12.273Z,990.00
2023-01-30T15:19:12.240Z,987.00
2023-01-30T15:20:12.207Z,989.00
2023-01-30T15:21:12.197Z,974.00
2023-01-30T15:23:12.158Z,994.00
2023-01-30T15:24:12.143Z,971.00
2023-01-30T15:26:12.091Z,976.00
2023-01-30T15:27:12.639Z,985.00
2023-01-30T15:28:12.018Z,988.00
2023-01-30T15:29:12.002Z,994.00
2023-01-30T15:30:11.989Z,996.00
2023-01-30T15:31:11.990Z,989.00
2023-01-30T15:32:11.931Z,1001.00
2023-01-30T15:33:12.745Z,996.00
2023-01-30T15:34:12.636Z,998.00
2023-01-30T15:35:11.865Z,985.00
2023-01-30T15:36:11.845Z,981.00
2023-01-30T15:37:11.824Z,994.00
2023-01-30T15:38:11.803Z,988.00
2023-01-30T15:39:11.849Z,983.00
2023-01-30T15:40:11.752Z,973.00
2023-01-30T15:41:11.750Z,988.00
2023-01-30T15:43:11.754Z,974.00
2023-01-30T15:44:11.738Z,974.00
2023-01-30T15:45:11.736Z,985.00
2023-01-30T15:46:11.782Z,969.00
2023-01-30T15:47:11.707Z,978.00
2023-01-30T15:48:11.708Z,978.00
2023-01-30T15:52:11.683Z,966.00
2023-01-30T15:53:11.734Z,956.00
2023-01-30T15:54:11.690Z,948.00
2023-01-30T15:55:11.682Z,946.00
2023-01-30T15:56:11.682Z,948.00
2023-01-30T15:57:11.699Z,945.00
2023-01-30T15:58:11.670Z,936.00
2023-01-30T15:59:11.676Z,951.00
2023-01-30T16:00:12.046Z,955.00
2023-01-30T16:01:11.698Z,941.00
2023-01-30T16:02:11.705Z,938.00
2023-01-30T16:03:11.662Z,945.00
2023-01-30T16:04:11.665Z,933.00
2023-01-30T16:05:11.658Z,936.00
2023-01-30T16:06:11.658Z,941.00
2023-01-30T16:07:11.653Z,924.00
2023-01-30T16:08:11.656Z,922.00
2023-01-30T16:09:11.666Z,921.00
2023-01-30T16:10:11.671Z,898.00
2023-01-30T16:11:11.677Z,911.00
2023-01-30T16:12:11.682Z,912.00
2023-01-30T16:13:11.685Z,896.00
2023-01-30T16:14:11.686Z,879.00
2023-01-30T16:15:19.311Z,898.00
2023-01-30T16:16:12.826Z,898.00
2023-01-30T16:17:12.624Z,898.00
2023-01-30T16:18:11.631Z,892.00
2023-01-30T16:19:11.610Z,883.00
2023-01-30T16:20:11.584Z,869.00
2023-01-30T16:21:11.567Z,866.00
2023-01-30T16:22:11.535Z,865.00
2023-01-30T16:23:11.517Z,862.00
2023-01-30T16:24:11.639Z,818.00
2023-01-30T16:25:11.488Z,818.00
2023-01-30T16:26:11.482Z,804.00
2023-01-30T16:31:12.304Z,806.00
2023-01-30T17:06:11.612Z,900.00
2023-01-30T17:14:10.980Z,920.00
2023-01-30T17:15:10.958Z,906.00
2023-01-30T17:16:11.108Z,920.00
2023-01-30T17:18:10.967Z,921.00
2023-01-30T17:19:10.963Z,932.00
2023-01-30T17:20:10.945Z,930.00
2023-01-30T17:21:11.040Z,910.00
2023-01-30T17:22:10.929Z,928.00
2023-01-30T17:23:10.937Z,930.00
2023-01-30T17:24:10.947Z,914.00